Home > Products > Valid Products > MTR

000
SAUS44 KEWX 301452
MTRATT
METAR KATT 301451Z AUTO VRB05KT 10SM FEW015 OVC024 21/17 A3018 RMK
AO2 SLP211 T02060172 51012





000
SAUS44 KEWX 301452
MTRATT
METAR KATT 301451Z AUTO VRB05KT 10SM FEW015 OVC024 21/17 A3018 RMK
AO2 SLP211 T02060172 51012





000
SAUS44 KEWX 301353
MTRATT
METAR KATT 301351Z AUTO 18004KT 10SM OVC021 19/17 A3017 RMK AO2
SLP208 T01940172





000
SAUS44 KEWX 301252
MTRATT
METAR KATT 301251Z AUTO 00000KT 10SM OVC021 19/17 A3016 RMK AO2
SLP206 T01890167





000
SAUS44 KEWX 301252
MTRATT
METAR KATT 301251Z AUTO 00000KT 10SM OVC021 19/17 A3016 RMK AO2
SLP206 T01890167





000
SAUS44 KEWX 301152
MTRATT
METAR KATT 301151Z AUTO 00000KT 10SM OVC019 18/17 A3014 RMK AO2
SLP198 T01830167 10183 20178 53014 $





000
SAUS44 KEWX 301152
MTRATT
METAR KATT 301151Z AUTO 00000KT 10SM OVC019 18/17 A3014 RMK AO2
SLP198 T01830167 10183 20178 53014 $





000
SAUS44 KEWX 301140
MTRATT
SPECI KATT 301139Z AUTO 18004KT 10SM OVC017 18/17 A3014 RMK AO2
T01830167 $





000
SAUS44 KEWX 301140
MTRATT
SPECI KATT 301139Z AUTO 18004KT 10SM OVC017 18/17 A3014 RMK AO2
T01830167 $





000
SAUS44 KEWX 301052
MTRATT
METAR KATT 301051Z AUTO 00000KT 10SM OVC012 18/17 A3012 RMK AO2
SLP189 T01830167 $





000
SAUS44 KEWX 301052
MTRATT
METAR KATT 301051Z AUTO 00000KT 10SM OVC012 18/17 A3012 RMK AO2
SLP189 T01830167 $





000
SAUS44 KEWX 300952
MTRATT
METAR KATT 300951Z AUTO VRB03KT 10SM BKN013 OVC019 18/17 A3010 RMK
AO2 SLP183 T01830167 $





000
SAUS44 KEWX 300950
MTRATT
SPECI KATT 300949Z AUTO VRB04KT 10SM BKN013 OVC019 18/17 A3010 RMK
AO2 $





000
SAUS44 KEWX 300915
MTRATT
SPECI KATT 300914Z AUTO VRB05KT 10SM OVC008 18/17 A3011 RMK AO2
T01830167 $





000
SAUS44 KEWX 300915
MTRATT
SPECI KATT 300914Z AUTO VRB05KT 10SM OVC008 18/17 A3011 RMK AO2
T01830167 $





000
SAUS44 KEWX 300853
MTRATT
METAR KATT 300851Z AUTO VRB03KT 10SM OVC010 18/17 A3011 RMK AO2
SLP185 T01830167 58005 $





000
SAUS44 KEWX 300752
MTRATT
METAR KATT 300751Z AUTO 19006KT 10SM OVC011 18/16 A3013 RMK AO2
SLP191 T01830161 $





000
SAUS44 KEWX 300652
MTRATT
METAR KATT 300651Z AUTO VRB04KT 10SM OVC014 18/16 A3013 RMK AO2
SLP191 T01830156 $





000
SAUS44 KEWX 300652
MTRATT
METAR KATT 300651Z AUTO VRB04KT 10SM OVC014 18/16 A3013 RMK AO2
SLP191 T01830156 $





000
SAUS44 KEWX 300639
MTRATT
SPECI KATT 300638Z AUTO 19005KT 10SM OVC014 18/16 A3012 RMK AO2
T01780156 $





000
SAUS44 KEWX 300639
MTRATT
SPECI KATT 300638Z AUTO 19005KT 10SM OVC014 18/16 A3012 RMK AO2
T01780156 $





000
SAUS44 KEWX 300617
MTRATT
SPECI KATT 300616Z AUTO 19005KT 10SM BKN015 18/16 A3013 RMK AO2
T01780156





000
SAUS44 KEWX 300617
MTRATT
SPECI KATT 300616Z AUTO 19005KT 10SM BKN015 18/16 A3013 RMK AO2
T01780156





000
SAUS44 KEWX 300552
MTRATT
METAR KATT 300551Z AUTO 18007KT 10SM CLR 18/16 A3012 RMK AO2 SLP191
T01830156 10256 20183 402890139 51009





000
SAUS44 KEWX 300552
MTRATT
METAR KATT 300551Z AUTO 18007KT 10SM CLR 18/16 A3012 RMK AO2 SLP191
T01830156 10256 20183 402890139 51009





000
SAUS44 KEWX 300453
MTRATT
METAR KATT 300451Z AUTO 17006KT 10SM CLR 19/16 A3012 RMK AO2 SLP191
T01890156





000
SAUS44 KEWX 300352
MTRATT
METAR KATT 300351Z AUTO 17005KT 10SM CLR 20/15 A3012 RMK AO2 SLP193
T02000150





000
SAUS44 KEWX 300352
MTRATT
METAR KATT 300351Z AUTO 17005KT 10SM CLR 20/15 A3012 RMK AO2 SLP193
T02000150





000
SAUS44 KEWX 300253
MTRATT
METAR KATT 300251Z AUTO 17007G14KT 10SM CLR 21/15 A3009 RMK AO2
SLP183 T02110150 53027





000
SAUS44 KEWX 300253
MTRATT
METAR KATT 300251Z AUTO 17007G14KT 10SM CLR 21/15 A3009 RMK AO2
SLP183 T02110150 53027





000
SAUS44 KEWX 300153
MTRATT
METAR KATT 300151Z AUTO 16005KT 10SM CLR 22/13 A3006 RMK AO2 SLP172
T02220133





000
SAUS44 KEWX 300053
MTRATT
METAR KATT 300051Z AUTO 17009G19KT 10SM CLR 24/12 A3003 RMK AO2
SLP162 T02390122





000
SAUS44 KEWX 300053
MTRATT
METAR KATT 300051Z AUTO 17009G19KT 10SM CLR 24/12 A3003 RMK AO2
SLP162 T02390122





000
SAUS44 KEWX 292352
MTRATT
METAR KATT 292351Z AUTO 17008G18KT 140V210 10SM CLR 26/14 A3001 RMK
AO2 SLP156 T02560139 10289 20256 55004





000
SAUS44 KEWX 292352
MTRATT
METAR KATT 292351Z AUTO 17008G18KT 140V210 10SM CLR 26/14 A3001 RMK
AO2 SLP156 T02560139 10289 20256 55004





000
SAUS44 KEWX 292252
MTRATT
METAR KATT 292251Z AUTO 18010G22KT 10SM CLR 28/13 A3001 RMK AO2
SLP155 T02780128





000
SAUS44 KEWX 292252
MTRATT
METAR KATT 292251Z AUTO 18010G22KT 10SM CLR 28/13 A3001 RMK AO2
SLP155 T02780128





000
SAUS44 KEWX 292152
MTRATT
METAR KATT 292151Z AUTO 16010G23KT 10SM CLR 28/13 A3001 RMK AO2
SLP153 T02830133





000
SAUS44 KEWX 292053
MTRATT
METAR KATT 292051Z AUTO 19013G23KT 10SM CLR 28/13 A3003 RMK AO2
SLP158 T02830128 58026





000
SAUS44 KEWX 292053
MTRATT
METAR KATT 292051Z AUTO 19013G23KT 10SM CLR 28/13 A3003 RMK AO2
SLP158 T02830128 58026





000
SAUS44 KEWX 291952
MTRATT
METAR KATT 291951Z AUTO 18010G21KT 150V210 10SM CLR 28/13 A3007 RMK
AO2 SLP171 T02780128





000
SAUS44 KEWX 291852
MTRATT
METAR KATT 291851Z AUTO 18007G16KT 140V200 10SM CLR 28/14 A3009 RMK
AO2 SLP180 T02780139





000
SAUS44 KEWX 291852
MTRATT
METAR KATT 291851Z AUTO 18007G16KT 140V200 10SM CLR 28/14 A3009 RMK
AO2 SLP180 T02780139





000
SAUS44 KEWX 291752
MTRATT
METAR KATT 291751Z AUTO 19009G18KT 150V220 10SM CLR 26/15 A3011 RMK
AO2 SLP186 T02610150 10261 20139 58005





000
SAUS44 KEWX 291752
MTRATT
METAR KATT 291751Z AUTO 19009G18KT 150V220 10SM CLR 26/15 A3011 RMK
AO2 SLP186 T02610150 10261 20139 58005





000
SAUS44 KEWX 291653
MTRATT
METAR KATT 291651Z AUTO 18008G17KT 150V210 10SM CLR 23/15 A3012 RMK
AO2 SLP191 T02330150





000
SAUS44 KEWX 291552
MTRATT
METAR KATT 291551Z AUTO 18007G17KT 10SM CLR 21/14 A3012 RMK AO2
SLP193 T02110144





000
SAUS44 KEWX 291552
MTRATT
METAR KATT 291551Z AUTO 18007G17KT 10SM CLR 21/14 A3012 RMK AO2
SLP193 T02110144





000
SAUS44 KEWX 291452
MTRATT
METAR KATT 291451Z AUTO 19009G19KT 10SM CLR 18/14 A3012 RMK AO2
SLP193 T01830139 51016





000
SAUS44 KEWX 291452
MTRATT
METAR KATT 291451Z AUTO 19009G19KT 10SM CLR 18/14 A3012 RMK AO2
SLP193 T01830139 51016





000
SAUS44 KEWX 291420
MTRATT
SPECI KATT 291419Z AUTO 19007G16KT 10SM SCT012 17/14 A3011 RMK AO2
T01720139





000
SAUS44 KEWX 291420
MTRATT
SPECI KATT 291419Z AUTO 19007G16KT 10SM SCT012 17/14 A3011 RMK AO2
T01720139





000
SAUS44 KEWX 291352
MTRATT
METAR KATT 291351Z AUTO 20007G18KT 10SM OVC010 17/14 A3011 RMK AO2
CIG 009V013 SLP188 T01670139





000
SAUS44 KEWX 291317
MTRATT
SPECI KATT 291316Z AUTO 18004KT 10SM BKN011 15/13 A3010 RMK AO2
T01500133





000
SAUS44 KEWX 291317
MTRATT
SPECI KATT 291316Z AUTO 18004KT 10SM BKN011 15/13 A3010 RMK AO2
T01500133





000
SAUS44 KEWX 291252
MTRATT
METAR KATT 291251Z AUTO 19006KT 10SM CLR 14/13 A3009 RMK AO2 SLP184
T01440128





000
SAUS44 KEWX 291252
MTRATT
METAR KATT 291251Z AUTO 19006KT 10SM CLR 14/13 A3009 RMK AO2 SLP184
T01440128





000
SAUS44 KEWX 291152
MTRATT
METAR KATT 291151Z AUTO 19004KT 10SM CLR 14/12 A3007 RMK AO2 SLP176
T01440122 10172 20144 53006





000
SAUS44 KEWX 291152
MTRATT
METAR KATT 291151Z AUTO 19004KT 10SM CLR 14/12 A3007 RMK AO2 SLP176
T01440122 10172 20144 53006





000
SAUS44 KEWX 291052
MTRATT
METAR KATT 291051Z AUTO 20006G15KT 10SM CLR 15/12 A3005 RMK AO2
SLP169 T01500117





000
SAUS44 KEWX 290953
MTRATT
METAR KATT 290951Z AUTO VRB06KT 10SM CLR 16/10 A3005 RMK AO2 SLP165
T01560100





000
SAUS44 KEWX 290852
MTRATT
METAR KATT 290851Z AUTO 20004KT 10SM CLR 16/11 A3006 RMK AO2 SLP168
T01560106 58009





000
SAUS44 KEWX 290852
MTRATT
METAR KATT 290851Z AUTO 20004KT 10SM CLR 16/11 A3006 RMK AO2 SLP168
T01560106 58009





000
SAUS44 KEWX 290752
MTRATT
METAR KATT 290751Z AUTO VRB06KT 10SM CLR 16/12 A3007 RMK AO2 SLP173
T01610117





000
SAUS44 KEWX 290752
MTRATT
METAR KATT 290751Z AUTO VRB06KT 10SM CLR 16/12 A3007 RMK AO2 SLP173
T01610117





000
SAUS44 KEWX 290653
MTRATT
METAR KATT 290651Z AUTO 19006KT 10SM CLR 16/11 A3008 RMK AO2 SLP177
T01610111





000
SAUS44 KEWX 290653
MTRATT
METAR KATT 290651Z AUTO 19006KT 10SM CLR 16/11 A3008 RMK AO2 SLP177
T01610111





000
SAUS44 KEWX 290552
MTRATT
METAR KATT 290551Z AUTO 18006KT 10SM CLR 17/10 A3008 RMK AO2 SLP177
T01720100 10261 20172 402890089 51006





000
SAUS44 KEWX 290552
MTRATT
METAR KATT 290551Z AUTO 18006KT 10SM CLR 17/10 A3008 RMK AO2 SLP177
T01720100 10261 20172 402890089 51006





000
SAUS44 KEWX 290452
MTRATT
METAR KATT 290451Z AUTO 10SM CLR 18/09 A3008 RMK AO2 SLP178
T01780094





000
SAUS44 KEWX 290452
MTRATT
METAR KATT 290451Z AUTO 10SM CLR 18/09 A3008 RMK AO2 SLP178
T01780094





000
SAUS44 KEWX 290352
MTRATT
METAR KATT 290351Z AUTO 18005KT 10SM CLR 19/08 A3008 RMK AO2 SLP177
T01940083





000
SAUS44 KEWX 290352
MTRATT
METAR KATT 290351Z AUTO 18005KT 10SM CLR 19/08 A3008 RMK AO2 SLP177
T01940083





000
SAUS44 KEWX 290252
MTRATT
METAR KATT 290251Z AUTO VRB04KT 10SM CLR 21/08 A3006 RMK AO2 SLP174
T02060083 53012





000
SAUS44 KEWX 290152
MTRATT
METAR KATT 290151Z AUTO 17003KT 10SM CLR 22/07 A3004 RMK AO2 SLP167
T02170072





000
SAUS44 KEWX 290152
MTRATT
METAR KATT 290151Z AUTO 17003KT 10SM CLR 22/07 A3004 RMK AO2 SLP167
T02170072





000
SAUS44 KEWX 290053
MTRATT
METAR KATT 290051Z AUTO 17007KT 10SM CLR 24/06 A3003 RMK AO2 SLP164
T02440056





000
SAUS44 KEWX 290053
MTRATT
METAR KATT 290051Z AUTO 17007KT 10SM CLR 24/06 A3003 RMK AO2 SLP164
T02440056





000
SAUS44 KEWX 282352
MTRATT
METAR KATT 282351Z AUTO VRB03G16KT 10SM CLR 26/04 A3003 RMK AO2
SLP163 T02610044 10289 20261 55005





000
SAUS44 KEWX 282352
MTRATT
METAR KATT 282351Z AUTO VRB03G16KT 10SM CLR 26/04 A3003 RMK AO2
SLP163 T02610044 10289 20261 55005





000
SAUS44 KEWX 282252
MTRATT
METAR KATT 282251Z AUTO 17010G18KT 140V200 10SM CLR 28/06 A3002 RMK
AO2 SLP159 T02780056





000
SAUS44 KEWX 282252
MTRATT
METAR KATT 282251Z AUTO 17010G18KT 140V200 10SM CLR 28/06 A3002 RMK
AO2 SLP159 T02780056





000
SAUS44 KEWX 282152
MTRATT
METAR KATT 282151Z AUTO 20008G15KT 10SM CLR 28/06 A3003 RMK AO2
SLP162 T02830056





000
SAUS44 KEWX 282152
MTRATT
METAR KATT 282151Z AUTO 20008G15KT 10SM CLR 28/06 A3003 RMK AO2
SLP162 T02830056





000
SAUS44 KEWX 282052
MTRATT
METAR KATT 282051Z AUTO 20008G18KT 10SM CLR 28/04 A3004 RMK AO2
SLP166 T02830044 58024





000
SAUS44 KEWX 282052
MTRATT
METAR KATT 282051Z AUTO 20008G18KT 10SM CLR 28/04 A3004 RMK AO2
SLP166 T02830044 58024





000
SAUS44 KEWX 281952
MTRATT
METAR KATT 281951Z AUTO VRB04G17KT 10SM CLR 29/07 A3007 RMK AO2
SLP174 T02890067





000
SAUS44 KEWX 281853
MTRATT
METAR KATT 281851Z AUTO 21010G16KT 10SM CLR 27/05 A3009 RMK AO2
SLP181 T02720050





000
SAUS44 KEWX 281853
MTRATT
METAR KATT 281851Z AUTO 21010G16KT 10SM CLR 27/05 A3009 RMK AO2
SLP181 T02720050





000
SAUS44 KEWX 281752
MTRATT
METAR KATT 281751Z AUTO 21011G18KT 10SM CLR 27/04 A3011 RMK AO2
SLP189 T02670044 10267 20094 58007





000
SAUS44 KEWX 281752
MTRATT
METAR KATT 281751Z AUTO 21011G18KT 10SM CLR 27/04 A3011 RMK AO2
SLP189 T02670044 10267 20094 58007





000
SAUS44 KEWX 281652
MTRATT
METAR KATT 281651Z AUTO 21007G16KT 160V230 10SM CLR 26/06 A3012 RMK
AO2 SLP193 T02560056





000
SAUS44 KEWX 281652
MTRATT
METAR KATT 281651Z AUTO 21007G16KT 160V230 10SM CLR 26/06 A3012 RMK
AO2 SLP193 T02560056





000
SAUS44 KEWX 281552
MTRATT
METAR KATT 281551Z AUTO 20008KT 160V220 10SM CLR 23/06 A3013 RMK AO2
SLP197 T02330056





000
SAUS44 KEWX 281453
MTRATT
METAR KATT 281451Z AUTO VRB03KT 10SM CLR 18/07 A3013 RMK AO2 SLP198
T01780072 50002





000
SAUS44 KEWX 281352
MTRATT
METAR KATT 281351Z AUTO 00000KT 10SM CLR 13/08 A3014 RMK AO2 SLP202
T01330083





000
SAUS44 KEWX 281352
MTRATT
METAR KATT 281351Z AUTO 00000KT 10SM CLR 13/08 A3014 RMK AO2 SLP202
T01330083





000
SAUS44 KEWX 281252
MTRATT
METAR KATT 281251Z AUTO 00000KT 10SM CLR 09/07 A3014 RMK AO2 SLP203
T00940067





000
SAUS44 KEWX 281252
MTRATT
METAR KATT 281251Z AUTO 00000KT 10SM CLR 09/07 A3014 RMK AO2 SLP203
T00940067





000
SAUS44 KEWX 281152
MTRATT
METAR KATT 281151Z AUTO 00000KT 10SM CLR 09/07 A3013 RMK AO2 SLP197
T00940067 10150 20089 50002





000
SAUS44 KEWX 281152
MTRATT
METAR KATT 281151Z AUTO 00000KT 10SM CLR 09/07 A3013 RMK AO2 SLP197
T00940067 10150 20089 50002





000
SAUS44 KEWX 281053
MTRATT
METAR KATT 281051Z AUTO 00000KT 10SM CLR 10/07 A3013 RMK AO2 SLP197
T01000067





000
SAUS44 KEWX 281053
MTRATT
METAR KATT 281051Z AUTO 00000KT 10SM CLR 10/07 A3013 RMK AO2 SLP197
T01000067





000
SAUS44 KEWX 280952
MTRATT
METAR KATT 280951Z AUTO 00000KT 10SM CLR 11/07 A3012 RMK AO2 SLP195
T01060067





000
SAUS44 KEWX 280852
MTRATT
METAR KATT 280851Z AUTO 00000KT 10SM CLR 11/07 A3012 RMK AO2 SLP194
T01110072 58009





000
SAUS44 KEWX 280852
MTRATT
METAR KATT 280851Z AUTO 00000KT 10SM CLR 11/07 A3012 RMK AO2 SLP194
T01110072 58009





000
SAUS44 KEWX 280752
MTRATT
METAR KATT 280751Z AUTO 00000KT 10SM CLR 13/07 A3013 RMK AO2 SLP198
T01280072





000
SAUS44 KEWX 280653
MTRATT
METAR KATT 280651Z AUTO 02003KT 10SM CLR 14/07 A3015 RMK AO2 SLP201
T01440067





000
SAUS44 KEWX 280553
MTRATT
METAR KATT 280551Z AUTO 00000KT 10SM CLR 15/07 A3015 RMK AO2 SLP204
T01500072 10256 20144 402780078 50003





000
SAUS44 KEWX 280553
MTRATT
METAR KATT 280551Z AUTO 00000KT 10SM CLR 15/07 A3015 RMK AO2 SLP204
T01500072 10256 20144 402780078 50003





000
SAUS44 KEWX 280452
MTRATT
METAR KATT 280451Z AUTO 00000KT 10SM CLR 16/07 A3016 RMK AO2 SLP206
T01610067





000
SAUS44 KEWX 280353
MTRATT
METAR KATT 280351Z AUTO 05003KT 10SM CLR 18/07 A3015 RMK AO2 SLP206
T01780067





000
SAUS44 KEWX 280353
MTRATT
METAR KATT 280351Z AUTO 05003KT 10SM CLR 18/07 A3015 RMK AO2 SLP206
T01780067





000
SAUS44 KEWX 280252
MTRATT
METAR KATT 280251Z AUTO 09004KT 10SM CLR 19/06 A3014 RMK AO2 SLP203
T01940061 53016





000
SAUS44 KEWX 280252
MTRATT
METAR KATT 280251Z AUTO 09004KT 10SM CLR 19/06 A3014 RMK AO2 SLP203
T01940061 53016





000
SAUS44 KEWX 280152
MTRATT
METAR KATT 280151Z AUTO 00000KT 10SM CLR 19/04 A3011 RMK AO2 SLP195
T01890044





000
SAUS44 KEWX 280053
MTRATT
METAR KATT 280051Z AUTO 00000KT 10SM CLR 22/02 A3010 RMK AO2 SLP188
T02220022





000
SAUS44 KEWX 272352
MTRATT
METAR KATT 272351Z AUTO VRB03KT 10SM CLR 26/01 A3009 RMK AO2 SLP186
T02560006 10278 20244 55008





000
SAUS44 KEWX 272253
MTRATT
METAR KATT 272251Z AUTO VRB04KT 10SM CLR 27/02 A3009 RMK AO2 SLP185
T02720017





000
SAUS44 KEWX 272253
MTRATT
METAR KATT 272251Z AUTO VRB04KT 10SM CLR 27/02 A3009 RMK AO2 SLP185
T02720017





000
SAUS44 KEWX 272152
MTRATT
METAR KATT 272151Z AUTO 29008KT 10SM CLR 27/01 A3010 RMK AO2 SLP187
T02720006





000
SAUS44 KEWX 272056 COR
MTRATT
METAR KATT 272051Z AUTO VRB04KT 10SM CLR 27/01 A3012 RMK AO2 SLP193
T02720011 58024





000
SAUS44 KEWX 272054 COR
MTRATT
METAR KATT 272051Z AUTO VRB04KT 10SM CLR 27/01 A3012 RMK AO2 SLP193
T02720011 58024





000
SAUS44 KEWX 272053 COR
MTRATT
METAR KATT 272051Z AUTO VRB04KT 10SM CLR 27/01 A3012 RMK AO2 SLP193
T02720011 58024





000
SAUS44 KEWX 272053 COR
MTRATT
METAR KATT 272051Z AUTO VRB04KT 10SM CLR 27/01 A3012 RMK AO2 SLP193
T02720011 58024





000
SAUS44 KEWX 272052
MTRATT
METAR KATT 272051Z AUTO VRB04KT 10SM CLR 27/01 A3012 RMK AO2 SLP193
T02720011 58024





000
SAUS44 KEWX 272052
MTRATT
METAR KATT 272051Z AUTO VRB04KT 10SM CLR 27/01 A3012 RMK AO2 SLP193
T02720011 58024





000
SAUS44 KEWX 271953
MTRATT
METAR KATT 271951Z AUTO 10SM CLR 26/00 A3014 RMK AO2 SLP201
T02610000





000
SAUS44 KEWX 271953
MTRATT
METAR KATT 271951Z AUTO 10SM CLR 26/00 A3014 RMK AO2 SLP201
T02610000





000
SAUS44 KEWX 271852
MTRATT
METAR KATT 271851Z AUTO VRB06G15KT 10SM CLR 26/M02 A3017 RMK AO2
SLP210 T02561017





000
SAUS44 KEWX 271852
MTRATT
METAR KATT 271851Z AUTO VRB06G15KT 10SM CLR 26/M02 A3017 RMK AO2
SLP210 T02561017





000
SAUS44 KEWX 271753
MTRATT
METAR KATT 271751Z AUTO VRB06KT 10SM CLR 24/02 A3019 RMK AO2 SLP218
T02390022 10239 20078 58003





000
SAUS44 KEWX 271753
MTRATT
METAR KATT 271751Z AUTO VRB06KT 10SM CLR 24/02 A3019 RMK AO2 SLP218
T02390022 10239 20078 58003





000
SAUS44 KEWX 271652
MTRATT
METAR KATT 271651Z AUTO 29007G17KT 10SM CLR 22/01 A3021 RMK AO2
SLP225 T02220011





000
SAUS44 KEWX 271652
MTRATT
METAR KATT 271651Z AUTO 29007G17KT 10SM CLR 22/01 A3021 RMK AO2
SLP225 T02220011





    US Dept of Commerce
    National Oceanic and Atmospheric Administration
    National Weather Service
    1325 East West Highway
    Silver Spring, MD 20910
    Page Author: NWS Internet Services Team
Disclaimer
Information Quality
Credits
Glossary
Privacy Policy
Freedom of Information Act (FOIA)
About Us
Career Opportunities